createdAt,value
2023-02-19T00:00:25.948Z,1013.88
2023-02-19T00:01:25.950Z,1013.90
2023-02-19T00:02:25.931Z,1013.86
2023-02-19T00:03:25.970Z,1013.86
2023-02-19T00:04:25.898Z,1013.89
2023-02-19T00:05:26.080Z,1013.84
2023-02-19T00:06:26.248Z,1013.82
2023-02-19T00:07:26.056Z,1013.76
2023-02-19T00:08:25.862Z,1013.71
2023-02-19T00:09:25.841Z,1013.81
2023-02-19T00:10:25.871Z,1013.84
2023-02-19T00:11:25.812Z,1013.79
2023-02-19T00:12:25.810Z,1013.78
2023-02-19T00:13:25.807Z,1013.81
2023-02-19T00:14:25.823Z,1013.77
2023-02-19T00:15:25.869Z,1013.80
2023-02-19T00:16:25.767Z,1013.83
2023-02-19T00:17:25.776Z,1013.85
2023-02-19T00:18:25.757Z,1013.84
2023-02-19T00:19:25.785Z,1013.79
2023-02-19T00:20:25.747Z,1013.74
2023-02-19T00:21:25.705Z,1013.75
2023-02-19T00:22:25.704Z,1013.76
2023-02-19T00:23:25.686Z,1013.67
2023-02-19T00:24:25.668Z,1013.69
2023-02-19T00:25:25.654Z,1013.66
2023-02-19T00:26:25.844Z,1013.68
2023-02-19T00:27:25.664Z,1013.70
2023-02-19T00:28:25.688Z,1013.68
2023-02-19T00:29:25.629Z,1013.75
2023-02-19T00:30:25.633Z,1013.79
2023-02-19T00:31:25.718Z,1013.81
2023-02-19T00:32:25.616Z,1013.65
2023-02-19T00:33:25.566Z,1013.64
2023-02-19T00:34:25.613Z,1013.71
2023-02-19T00:35:25.549Z,1013.61
2023-02-19T00:36:25.542Z,1013.57
2023-02-19T00:37:25.638Z,1013.65
2023-02-19T00:38:25.517Z,1013.66
2023-02-19T00:39:25.545Z,1013.63
2023-02-19T00:40:25.517Z,1013.57
2023-02-19T00:41:25.489Z,1013.69
2023-02-19T00:42:25.481Z,1013.61
2023-02-19T00:43:25.453Z,1013.59
2023-02-19T00:44:25.454Z,1013.57
2023-02-19T00:45:25.530Z,1013.57
2023-02-19T00:46:25.522Z,1013.61
2023-02-19T00:47:25.434Z,1013.54
2023-02-19T00:48:25.426Z,1013.53
2023-02-19T00:49:25.454Z,1013.63
2023-02-19T00:50:25.398Z,1013.54
2023-02-19T00:51:25.388Z,1013.53
2023-02-19T00:52:25.401Z,1013.53
2023-02-19T00:53:25.344Z,1013.55
2023-02-19T00:54:25.369Z,1013.47
2023-02-19T00:55:25.350Z,1013.47
2023-02-19T00:56:25.347Z,1013.45
2023-02-19T00:57:25.318Z,1013.51
2023-02-19T00:58:25.305Z,1013.55
2023-02-19T00:59:25.277Z,1013.46
2023-02-19T01:00:25.322Z,1013.49
2023-02-19T01:01:25.415Z,1013.52
2023-02-19T01:02:25.298Z,1013.59
2023-02-19T01:03:25.302Z,1013.59
2023-02-19T01:04:25.293Z,1013.56
2023-02-19T01:05:25.211Z,1013.57
2023-02-19T01:06:25.212Z,1013.60
2023-02-19T01:07:25.199Z,1013.55
2023-02-19T01:08:25.256Z,1013.50
2023-02-19T01:09:25.164Z,1013.54
2023-02-19T01:10:25.158Z,1013.59
2023-02-19T01:11:25.146Z,1013.58
2023-02-19T01:12:25.128Z,1013.54
2023-02-19T01:13:25.192Z,1013.56
2023-02-19T01:14:25.167Z,1013.54
2023-02-19T01:15:25.100Z,1013.50
2023-02-19T01:16:25.296Z,1013.58
2023-02-19T01:17:25.251Z,1013.53
2023-02-19T01:18:25.077Z,1013.52
2023-02-19T01:19:25.085Z,1013.54
2023-02-19T01:20:25.521Z,1013.50
2023-02-19T01:21:25.095Z,1013.53
2023-02-19T01:22:25.017Z,1013.48
2023-02-19T01:23:24.998Z,1013.50
2023-02-19T01:24:25.007Z,1013.47
2023-02-19T01:25:25.059Z,1013.53
2023-02-19T01:26:25.022Z,1013.52
2023-02-19T01:27:25.096Z,1013.49
2023-02-19T01:28:24.970Z,1013.50
2023-02-19T01:29:24.938Z,1013.48
2023-02-19T01:30:25.093Z,1013.49
2023-02-19T01:31:24.984Z,1013.41
2023-02-19T01:32:24.925Z,1013.47
2023-02-19T01:33:24.890Z,1013.46
2023-02-19T01:34:24.879Z,1013.50
2023-02-19T01:35:24.865Z,1013.52
2023-02-19T01:36:24.882Z,1013.48
2023-02-19T01:37:24.860Z,1013.60
2023-02-19T01:38:24.835Z,1013.55
2023-02-19T01:39:24.833Z,1013.55
2023-02-19T01:40:24.814Z,1013.52
2023-02-19T01:41:24.847Z,1013.41
2023-02-19T01:42:24.793Z,1013.47
2023-02-19T01:43:24.776Z,1013.54
2023-02-19T01:44:24.775Z,1013.48
2023-02-19T01:45:24.747Z,1013.42
2023-02-19T01:46:24.830Z,1013.49
2023-02-19T01:47:24.792Z,1013.43
2023-02-19T01:48:24.735Z,1013.47
2023-02-19T01:49:24.740Z,1013.50
2023-02-19T01:50:24.695Z,1013.54
2023-02-19T01:51:24.690Z,1013.56
2023-02-19T01:52:24.674Z,1013.52
2023-02-19T01:53:24.668Z,1013.52
2023-02-19T01:54:24.654Z,1013.62
2023-02-19T01:55:24.722Z,1013.43
2023-02-19T01:56:24.641Z,1013.48
2023-02-19T01:57:24.617Z,1013.56
2023-02-19T01:58:24.614Z,1013.53
2023-02-19T01:59:24.598Z,1013.56
2023-02-19T02:00:24.594Z,1013.58
2023-02-19T02:01:24.596Z,1013.62
2023-02-19T02:02:24.567Z,1013.60
2023-02-19T02:03:24.583Z,1013.54
2023-02-19T02:04:24.550Z,1013.63
2023-02-19T02:05:24.558Z,1013.53
2023-02-19T02:06:24.552Z,1013.55
2023-02-19T02:07:24.525Z,1013.57
2023-02-19T02:08:24.612Z,1013.49
2023-02-19T02:09:24.532Z,1013.62
2023-02-19T02:10:24.484Z,1013.49
2023-02-19T02:11:24.471Z,1013.56
2023-02-19T02:12:24.452Z,1013.61
2023-02-19T02:13:24.439Z,1013.56
2023-02-19T02:14:24.443Z,1013.61
2023-02-19T02:15:24.449Z,1013.50
2023-02-19T02:16:24.450Z,1013.60
2023-02-19T02:17:25.077Z,1013.57
2023-02-19T02:18:24.392Z,1013.63
2023-02-19T02:19:24.371Z,1013.64
2023-02-19T02:20:24.366Z,1013.69
2023-02-19T02:21:24.387Z,1013.70
2023-02-19T02:22:24.361Z,1013.76
2023-02-19T02:23:24.334Z,1013.73
2023-02-19T02:24:24.309Z,1013.67
2023-02-19T02:25:25.272Z,1013.71
2023-02-19T02:26:24.316Z,1013.73
2023-02-19T02:27:24.311Z,1013.58
2023-02-19T02:28:24.281Z,1013.66
2023-02-19T02:29:24.318Z,1013.68
2023-02-19T02:30:25.194Z,1013.64
2023-02-19T02:31:24.334Z,1013.59
2023-02-19T02:32:24.248Z,1013.61
2023-02-19T02:33:24.221Z,1013.64
2023-02-19T02:34:24.206Z,1013.66
2023-02-19T02:35:24.219Z,1013.73
2023-02-19T02:36:24.207Z,1013.74
2023-02-19T02:37:24.192Z,1013.76
2023-02-19T02:38:24.180Z,1013.57
2023-02-19T02:39:24.345Z,1013.75
2023-02-19T02:40:24.151Z,1013.69
2023-02-19T02:41:24.164Z,1013.62
2023-02-19T02:42:24.433Z,1013.65
2023-02-19T02:43:24.126Z,1013.62
2023-02-19T02:44:24.095Z,1013.68
2023-02-19T02:45:24.170Z,1013.59
2023-02-19T02:46:24.094Z,1013.68
2023-02-19T02:47:24.085Z,1013.61
2023-02-19T02:48:24.056Z,1013.63
2023-02-19T02:49:24.053Z,1013.67
2023-02-19T02:50:24.032Z,1013.65
2023-02-19T02:51:24.047Z,1013.71
2023-02-19T02:52:24.009Z,1013.67
2023-02-19T02:53:24.087Z,1013.54
2023-02-19T02:54:24.479Z,1013.62
2023-02-19T02:55:23.969Z,1013.69
2023-02-19T02:56:23.987Z,1013.65
2023-02-19T02:57:23.955Z,1013.68
2023-02-19T02:58:23.936Z,1013.75
2023-02-19T02:59:23.932Z,1013.67
2023-02-19T03:00:23.968Z,1013.70
2023-02-19T03:01:25.489Z,1013.76
2023-02-19T03:02:23.971Z,1013.72
2023-02-19T03:03:23.880Z,1013.73
2023-02-19T03:04:23.870Z,1013.68
2023-02-19T03:05:24.817Z,1013.83
2023-02-19T03:06:23.876Z,1013.84
2023-02-19T03:07:23.858Z,1013.76
2023-02-19T03:08:23.834Z,1013.81
2023-02-19T03:09:23.808Z,1013.82
2023-02-19T03:10:23.803Z,1013.81
2023-02-19T03:11:23.826Z,1013.85
2023-02-19T03:12:23.814Z,1013.79
2023-02-19T03:13:23.802Z,1013.84
2023-02-19T03:14:23.770Z,1013.81
2023-02-19T03:15:23.750Z,1013.78
2023-02-19T03:16:23.783Z,1013.79
2023-02-19T03:17:23.812Z,1013.87
2023-02-19T03:18:23.721Z,1013.81
2023-02-19T03:19:23.949Z,1013.84
2023-02-19T03:20:23.716Z,1013.92
2023-02-19T03:21:23.687Z,1013.89
2023-02-19T03:22:23.673Z,1013.88
2023-02-19T03:23:23.660Z,1013.88
2023-02-19T03:24:23.652Z,1013.81
2023-02-19T03:25:23.667Z,1013.99
2023-02-19T03:26:23.932Z,1013.96
2023-02-19T03:27:23.615Z,1013.98
2023-02-19T03:28:23.591Z,1013.91
2023-02-19T03:29:23.596Z,1013.98
2023-02-19T03:30:23.627Z,1013.93
2023-02-19T03:31:23.633Z,1013.92
2023-02-19T03:32:23.607Z,1013.90
2023-02-19T03:33:23.531Z,1013.97
2023-02-19T03:34:25.268Z,1013.94
2023-02-19T03:35:23.518Z,1013.95
2023-02-19T03:36:23.503Z,1013.91
2023-02-19T03:37:23.527Z,1013.96
2023-02-19T03:38:23.502Z,1013.87
2023-02-19T03:39:23.489Z,1013.91
2023-02-19T03:40:23.464Z,1013.97
2023-02-19T03:41:23.452Z,1013.98
2023-02-19T03:42:23.475Z,1014.02
2023-02-19T03:43:23.443Z,1014.04
2023-02-19T03:44:23.416Z,1013.99
2023-02-19T03:45:23.408Z,1014.04
2023-02-19T03:46:23.441Z,1014.11
2023-02-19T03:47:23.389Z,1014.04
2023-02-19T03:48:23.439Z,1014.03
2023-02-19T03:49:23.355Z,1014.06
2023-02-19T03:50:23.348Z,1014.09
2023-02-19T03:51:23.328Z,1014.07
2023-02-19T03:52:23.318Z,1014.08
2023-02-19T03:53:23.312Z,1014.11
2023-02-19T03:54:23.356Z,1014.10
2023-02-19T03:55:23.299Z,1014.12
2023-02-19T03:56:23.282Z,1014.07
2023-02-19T03:57:23.271Z,1014.18
2023-02-19T03:58:23.250Z,1014.18
2023-02-19T03:59:23.245Z,1014.18
2023-02-19T04:00:23.241Z,1014.18
2023-02-19T04:01:23.234Z,1014.15
2023-02-19T04:02:24.695Z,1014.22
2023-02-19T04:03:23.207Z,1014.22
2023-02-19T04:04:23.252Z,1014.29
2023-02-19T04:05:23.191Z,1014.19
2023-02-19T04:06:23.165Z,1014.31
2023-02-19T04:07:23.173Z,1014.30
2023-02-19T04:08:23.178Z,1014.25
2023-02-19T04:09:23.145Z,1014.31
2023-02-19T04:10:23.146Z,1014.31
2023-02-19T04:11:23.123Z,1014.33
2023-02-19T04:12:23.094Z,1014.39
2023-02-19T04:13:23.090Z,1014.33
2023-02-19T04:14:23.080Z,1014.34
2023-02-19T04:15:23.112Z,1014.34
2023-02-19T04:16:23.078Z,1014.37
2023-02-19T04:17:23.260Z,1014.40
2023-02-19T04:18:23.376Z,1014.40
2023-02-19T04:19:23.024Z,1014.46
2023-02-19T04:20:23.010Z,1014.50
2023-02-19T04:21:22.998Z,1014.45
2023-02-19T04:22:23.002Z,1014.49
2023-02-19T04:23:22.995Z,1014.56
2023-02-19T04:24:22.964Z,1014.56
2023-02-19T04:25:22.963Z,1014.57
2023-02-19T04:26:22.954Z,1014.62
2023-02-19T04:27:22.968Z,1014.61
2023-02-19T04:28:23.881Z,1014.59
2023-02-19T04:29:22.912Z,1014.73
2023-02-19T04:30:22.945Z,1014.62
2023-02-19T04:31:22.920Z,1014.65
2023-02-19T04:32:22.859Z,1014.70
2023-02-19T04:33:22.906Z,1014.65
2023-02-19T04:34:22.854Z,1014.74
2023-02-19T04:35:22.836Z,1014.74
2023-02-19T04:36:22.822Z,1014.72
2023-02-19T04:37:22.832Z,1014.80
2023-02-19T04:38:22.840Z,1014.83
2023-02-19T04:39:22.811Z,1014.77
2023-02-19T04:40:22.775Z,1014.83
2023-02-19T04:41:22.769Z,1014.80
2023-02-19T04:42:22.771Z,1014.81
2023-02-19T04:43:22.766Z,1014.77
2023-02-19T04:44:22.727Z,1014.88
2023-02-19T04:45:22.738Z,1014.92
2023-02-19T04:46:22.756Z,1014.92
2023-02-19T04:47:22.703Z,1014.98
2023-02-19T04:48:22.713Z,1014.91
2023-02-19T04:49:22.679Z,1014.98
2023-02-19T04:50:22.654Z,1014.93
2023-02-19T04:51:22.672Z,1014.95
2023-02-19T04:52:22.652Z,1015.00
2023-02-19T04:53:22.646Z,1015.05
2023-02-19T04:54:22.614Z,1014.99
2023-02-19T04:55:22.606Z,1014.94
2023-02-19T04:56:22.589Z,1015.03
2023-02-19T04:57:22.593Z,1015.01
2023-02-19T04:58:22.605Z,1015.01
2023-02-19T04:59:22.572Z,1014.95
2023-02-19T05:00:22.552Z,1015.03
2023-02-19T05:01:22.577Z,1015.03
2023-02-19T05:02:22.536Z,1015.04
2023-02-19T05:03:22.536Z,1014.98
2023-02-19T05:04:22.511Z,1015.06
2023-02-19T05:05:22.493Z,1015.06
2023-02-19T05:06:22.494Z,1015.03
2023-02-19T05:07:22.494Z,1015.09
2023-02-19T05:08:22.554Z,1015.09
2023-02-19T05:09:22.442Z,1015.04
2023-02-19T05:10:22.459Z,1015.09
2023-02-19T05:11:22.462Z,1015.09
2023-02-19T05:12:22.405Z,1015.13
2023-02-19T05:13:22.418Z,1015.12
2023-02-19T05:14:22.427Z,1015.17
2023-02-19T05:15:22.399Z,1015.15
2023-02-19T05:16:22.369Z,1015.25
2023-02-19T05:17:22.356Z,1015.30
2023-02-19T05:18:22.350Z,1015.26
2023-02-19T05:19:22.338Z,1015.27
2023-02-19T05:20:22.358Z,1015.28
2023-02-19T05:21:22.356Z,1015.25
2023-02-19T05:22:22.299Z,1015.28
2023-02-19T05:23:22.293Z,1015.39
2023-02-19T05:24:22.276Z,1015.32
2023-02-19T05:25:22.277Z,1015.34
2023-02-19T05:26:22.297Z,1015.33
2023-02-19T05:27:22.250Z,1015.36
2023-02-19T05:28:22.229Z,1015.42
2023-02-19T05:29:22.231Z,1015.41
2023-02-19T05:30:22.249Z,1015.42
2023-02-19T05:31:22.288Z,1015.43
2023-02-19T05:32:22.222Z,1015.41
2023-02-19T05:33:22.195Z,1015.41
2023-02-19T05:34:22.188Z,1015.40
2023-02-19T05:35:22.168Z,1015.41
2023-02-19T05:36:22.163Z,1015.43
2023-02-19T05:37:22.160Z,1015.38
2023-02-19T05:38:22.121Z,1015.48
2023-02-19T05:39:22.146Z,1015.45
2023-02-19T05:40:22.113Z,1015.43
2023-02-19T05:41:22.094Z,1015.49
2023-02-19T05:42:22.090Z,1015.49
2023-02-19T05:43:22.140Z,1015.48
2023-02-19T05:44:23.997Z,1015.50
2023-02-19T05:45:22.055Z,1015.54
2023-02-19T05:46:22.202Z,1015.53
2023-02-19T05:47:22.048Z,1015.60
2023-02-19T05:48:22.022Z,1015.50
2023-02-19T05:49:22.002Z,1015.60
2023-02-19T05:50:21.982Z,1015.56
2023-02-19T05:51:21.992Z,1015.58
2023-02-19T05:52:22.013Z,1015.59
2023-02-19T05:53:21.958Z,1015.59
2023-02-19T05:54:21.939Z,1015.64
2023-02-19T05:55:21.936Z,1015.63
2023-02-19T05:56:21.917Z,1015.65
2023-02-19T05:57:22.863Z,1015.65
2023-02-19T05:58:21.930Z,1015.59
2023-02-19T05:59:21.888Z,1015.67
2023-02-19T06:00:21.880Z,1015.72
2023-02-19T06:01:21.894Z,1015.69
2023-02-19T06:02:21.897Z,1015.65
2023-02-19T06:03:21.866Z,1015.68
2023-02-19T06:04:21.857Z,1015.68
2023-02-19T06:05:21.861Z,1015.67
2023-02-19T06:06:22.762Z,1015.66
2023-02-19T06:07:21.848Z,1015.75
2023-02-19T06:08:21.854Z,1015.62
2023-02-19T06:09:21.782Z,1015.70
2023-02-19T06:10:21.812Z,1015.74
2023-02-19T06:11:21.772Z,1015.73
2023-02-19T06:12:21.768Z,1015.75
2023-02-19T06:13:21.734Z,1015.80
2023-02-19T06:14:21.724Z,1015.73
2023-02-19T06:15:21.741Z,1015.74
2023-02-19T06:16:21.745Z,1015.69
2023-02-19T06:17:21.760Z,1015.74
2023-02-19T06:18:21.693Z,1015.75
2023-02-19T06:19:21.665Z,1015.75
2023-02-19T06:20:21.663Z,1015.80
2023-02-19T06:21:21.648Z,1015.77
2023-02-19T06:22:21.681Z,1015.74
2023-02-19T06:23:21.628Z,1015.76
2023-02-19T06:24:21.624Z,1015.77
2023-02-19T06:25:21.593Z,1015.84
2023-02-19T06:26:21.586Z,1015.85
2023-02-19T06:27:21.590Z,1015.83
2023-02-19T06:28:21.575Z,1015.89
2023-02-19T06:29:21.564Z,1015.94
2023-02-19T06:30:21.579Z,1015.93
2023-02-19T06:31:21.649Z,1015.99
2023-02-19T06:32:21.704Z,1015.93
2023-02-19T06:33:21.509Z,1015.96
2023-02-19T06:34:21.501Z,1015.94
2023-02-19T06:35:21.485Z,1015.95
2023-02-19T06:36:21.481Z,1016.02
2023-02-19T06:37:21.479Z,1016.05
2023-02-19T06:38:21.477Z,1016.08
2023-02-19T06:39:21.451Z,1016.05
2023-02-19T06:40:22.394Z,1016.06
2023-02-19T06:41:21.440Z,1016.09
2023-02-19T06:42:21.461Z,1016.09
2023-02-19T06:43:21.450Z,1016.09
2023-02-19T06:44:21.413Z,1016.13
2023-02-19T06:45:21.432Z,1016.07
2023-02-19T06:46:22.371Z,1016.11
2023-02-19T06:47:23.188Z,1016.06
2023-02-19T06:48:21.358Z,1016.05
2023-02-19T06:49:21.333Z,1016.08
2023-02-19T06:50:21.332Z,1016.07
2023-02-19T06:51:21.360Z,1016.15
2023-02-19T06:52:21.308Z,1016.18
2023-02-19T06:53:21.375Z,1016.17
2023-02-19T06:54:21.280Z,1016.31
2023-02-19T06:55:22.208Z,1016.24
2023-02-19T06:56:21.271Z,1016.37
2023-02-19T06:57:21.244Z,1016.36
2023-02-19T06:58:21.238Z,1016.35
2023-02-19T06:59:22.020Z,1016.29
2023-02-19T07:00:22.661Z,1016.40
2023-02-19T07:01:21.192Z,1016.31
2023-02-19T07:02:21.199Z,1016.42
2023-02-19T07:03:21.172Z,1016.40
2023-02-19T07:04:21.286Z,1016.48
2023-02-19T07:05:21.193Z,1016.50
2023-02-19T07:06:21.144Z,1016.49
2023-02-19T07:07:21.148Z,1016.51
2023-02-19T07:08:21.121Z,1016.53
2023-02-19T07:09:21.104Z,1016.54
2023-02-19T07:10:21.131Z,1016.55
2023-02-19T07:11:21.429Z,1016.53
2023-02-19T07:12:21.085Z,1016.55
2023-02-19T07:13:21.052Z,1016.55
2023-02-19T07:14:21.082Z,1016.58
2023-02-19T07:15:21.089Z,1016.63
2023-02-19T07:16:21.074Z,1016.61
2023-02-19T07:17:21.496Z,1016.61
2023-02-19T07:18:21.085Z,1016.56
2023-02-19T07:19:21.026Z,1016.54
2023-02-19T07:20:20.993Z,1016.61
2023-02-19T07:21:20.986Z,1016.63
2023-02-19T07:22:20.980Z,1016.70
2023-02-19T07:23:20.976Z,1016.69
2023-02-19T07:24:21.889Z,1016.67
2023-02-19T07:25:20.965Z,1016.76
2023-02-19T07:26:20.925Z,1016.76
2023-02-19T07:27:20.913Z,1016.82
2023-02-19T07:28:20.959Z,1016.82
2023-02-19T07:29:21.150Z,1016.78
2023-02-19T07:30:20.902Z,1016.93
2023-02-19T07:31:20.947Z,1016.86
2023-02-19T07:32:20.856Z,1016.96
2023-02-19T07:33:20.841Z,1016.90
2023-02-19T07:34:21.180Z,1016.87
2023-02-19T07:35:20.837Z,1017.02
2023-02-19T07:36:21.240Z,1016.95
2023-02-19T07:37:20.840Z,1017.02
2023-02-19T07:38:20.959Z,1017.05
2023-02-19T07:39:21.122Z,1017.11
2023-02-19T07:40:21.097Z,1017.08
2023-02-19T07:41:21.271Z,1017.13
2023-02-19T07:42:20.806Z,1017.14
2023-02-19T07:43:20.894Z,1017.17
2023-02-19T07:44:20.754Z,1017.22
2023-02-19T07:45:20.733Z,1017.24
2023-02-19T07:46:20.712Z,1017.22
2023-02-19T07:47:21.648Z,1017.25
2023-02-19T07:48:21.543Z,1017.29
2023-02-19T07:49:20.705Z,1017.28
2023-02-19T07:50:20.675Z,1017.29
2023-02-19T07:51:20.717Z,1017.30
2023-02-19T07:52:20.671Z,1017.33
2023-02-19T07:53:20.617Z,1017.33
2023-02-19T07:54:22.094Z,1017.39
2023-02-19T07:55:20.713Z,1017.36
2023-02-19T07:56:21.057Z,1017.37
2023-02-19T07:57:20.856Z,1017.34
2023-02-19T07:58:20.600Z,1017.34
2023-02-19T07:59:20.586Z,1017.37
2023-02-19T08:00:20.575Z,1017.40
2023-02-19T08:01:22.073Z,1017.42
2023-02-19T08:02:21.429Z,1017.46
2023-02-19T08:03:20.540Z,1017.44
2023-02-19T08:04:20.509Z,1017.45
2023-02-19T08:05:21.934Z,1017.55
2023-02-19T08:06:21.960Z,1017.50
2023-02-19T08:07:21.244Z,1017.51
2023-02-19T08:08:20.802Z,1017.53
2023-02-19T08:09:20.460Z,1017.58
2023-02-19T08:10:21.894Z,1017.53
2023-02-19T08:11:20.414Z,1017.54
2023-02-19T08:12:20.433Z,1017.58
2023-02-19T08:13:20.411Z,1017.54
2023-02-19T08:14:20.415Z,1017.58
2023-02-19T08:15:22.571Z,1017.61
2023-02-19T08:16:32.987Z,1017.56
2023-02-19T08:17:21.417Z,1017.58
2023-02-19T08:18:20.346Z,1017.61
2023-02-19T08:19:20.364Z,1017.58
2023-02-19T08:20:20.337Z,1017.59
2023-02-19T08:21:20.292Z,1017.62
2023-02-19T08:22:20.314Z,1017.58
2023-02-19T08:23:20.332Z,1017.66
2023-02-19T08:24:20.307Z,1017.58
2023-02-19T08:25:20.254Z,1017.63
2023-02-19T08:26:20.250Z,1017.67
2023-02-19T08:27:20.254Z,1017.68
2023-02-19T08:28:20.237Z,1017.65
2023-02-19T08:29:20.212Z,1017.72
2023-02-19T08:30:20.277Z,1017.71
2023-02-19T08:31:20.283Z,1017.72
2023-02-19T08:32:20.200Z,1017.69
2023-02-19T08:33:20.196Z,1017.69
2023-02-19T08:34:20.159Z,1017.67
2023-02-19T08:35:20.144Z,1017.64
2023-02-19T08:36:20.163Z,1017.57
2023-02-19T08:37:20.165Z,1017.63
2023-02-19T08:38:20.250Z,1017.66
2023-02-19T08:39:21.132Z,1017.61
2023-02-19T08:40:20.159Z,1017.63
2023-02-19T08:41:21.028Z,1017.69
2023-02-19T08:42:20.080Z,1017.67
2023-02-19T08:43:20.087Z,1017.63
2023-02-19T08:44:20.140Z,1017.64
2023-02-19T08:45:20.132Z,1017.61
2023-02-19T08:46:27.924Z,1017.67
2023-02-19T08:47:21.467Z,1017.73
2023-02-19T08:48:21.447Z,1017.77
2023-02-19T08:49:20.291Z,1017.71
2023-02-19T08:50:19.966Z,1017.72
2023-02-19T08:51:21.423Z,1017.76
2023-02-19T08:52:19.981Z,1017.79
2023-02-19T08:53:21.391Z,1017.79
2023-02-19T08:54:21.378Z,1017.81
2023-02-19T08:55:21.356Z,1017.86
2023-02-19T08:56:19.952Z,1017.81
2023-02-19T08:57:19.928Z,1017.87
2023-02-19T08:58:20.610Z,1017.88
2023-02-19T08:59:19.881Z,1017.88
2023-02-19T09:00:20.226Z,1017.86
2023-02-19T09:01:22.333Z,1017.80
2023-02-19T09:02:19.864Z,1017.80
2023-02-19T09:03:20.652Z,1017.86
2023-02-19T09:04:20.367Z,1017.85
2023-02-19T09:05:21.793Z,1017.83
2023-02-19T09:06:20.746Z,1017.82
2023-02-19T09:07:20.574Z,1017.87
2023-02-19T09:08:19.979Z,1017.90
2023-02-19T09:09:19.835Z,1018.02
2023-02-19T09:10:20.213Z,1017.97
2023-02-19T09:11:19.752Z,1017.98
2023-02-19T09:12:19.731Z,1018.01
2023-02-19T09:13:19.816Z,1018.05
2023-02-19T09:14:19.715Z,1018.07
2023-02-19T09:15:19.694Z,1018.08
2023-02-19T09:16:19.701Z,1018.09
2023-02-19T09:17:19.830Z,1018.10
2023-02-19T09:18:20.603Z,1018.10
2023-02-19T09:19:19.920Z,1018.18
2023-02-19T09:20:19.636Z,1018.18
2023-02-19T09:21:19.665Z,1018.20
2023-02-19T09:22:19.924Z,1018.18
2023-02-19T09:23:19.611Z,1018.18
2023-02-19T09:24:19.599Z,1018.22
2023-02-19T09:25:19.577Z,1018.27
2023-02-19T09:26:19.566Z,1018.21
2023-02-19T09:27:19.606Z,1018.25
2023-02-19T09:28:19.627Z,1018.22
2023-02-19T09:29:19.543Z,1018.29
2023-02-19T09:30:19.570Z,1018.32
2023-02-19T09:31:19.621Z,1018.44
2023-02-19T09:32:19.529Z,1018.41
2023-02-19T09:33:19.500Z,1018.42
2023-02-19T09:34:19.475Z,1018.42
2023-02-19T09:35:19.810Z,1018.49
2023-02-19T09:36:19.506Z,1018.55
2023-02-19T09:37:19.744Z,1018.46
2023-02-19T09:38:19.524Z,1018.46
2023-02-19T09:39:19.886Z,1018.42
2023-02-19T09:40:20.407Z,1018.47
2023-02-19T09:41:19.407Z,1018.39
2023-02-19T09:42:19.390Z,1018.34
2023-02-19T09:43:19.371Z,1018.37
2023-02-19T09:44:19.416Z,1018.34
2023-02-19T09:45:19.366Z,1018.38
2023-02-19T09:46:19.402Z,1018.38
2023-02-19T09:47:19.337Z,1018.51
2023-02-19T09:48:19.350Z,1018.47
2023-02-19T09:49:20.756Z,1018.45
2023-02-19T09:50:20.221Z,1018.46
2023-02-19T09:51:19.288Z,1018.44
2023-02-19T09:52:19.367Z,1018.44
2023-02-19T09:53:20.716Z,1018.50
2023-02-19T09:54:19.266Z,1018.58
2023-02-19T09:55:19.254Z,1018.52
2023-02-19T09:56:19.230Z,1018.59
2023-02-19T09:57:19.216Z,1018.59
2023-02-19T09:58:19.256Z,1018.62
2023-02-19T09:59:19.194Z,1018.65
2023-02-19T10:00:19.186Z,1018.69
2023-02-19T10:01:19.230Z,1018.73
2023-02-19T10:02:19.167Z,1018.76
2023-02-19T10:03:19.163Z,1018.77
2023-02-19T10:04:19.341Z,1018.81
2023-02-19T10:05:19.187Z,1018.87
2023-02-19T10:06:19.115Z,1018.90
2023-02-19T10:07:19.138Z,1018.86
2023-02-19T10:08:19.112Z,1018.94
2023-02-19T10:09:19.077Z,1018.93
2023-02-19T10:10:19.121Z,1018.93
2023-02-19T10:11:19.126Z,1018.97
2023-02-19T10:12:19.056Z,1019.03
2023-02-19T10:13:19.029Z,1019.08
2023-02-19T10:14:19.056Z,1019.17
2023-02-19T10:15:19.030Z,1019.23
2023-02-19T10:16:19.057Z,1019.13
2023-02-19T10:17:19.452Z,1019.16
2023-02-19T10:18:19.027Z,1019.10
2023-02-19T10:19:18.984Z,1019.11
2023-02-19T10:20:19.022Z,1019.07
2023-02-19T10:21:18.947Z,1019.07
2023-02-19T10:22:18.953Z,1019.05
2023-02-19T10:23:18.960Z,1019.09
2023-02-19T10:24:18.911Z,1019.06
2023-02-19T10:25:18.887Z,1019.11
2023-02-19T10:26:18.961Z,1019.22
2023-02-19T10:27:18.869Z,1019.23
2023-02-19T10:28:18.866Z,1019.30
2023-02-19T10:29:18.890Z,1019.34
2023-02-19T10:30:18.987Z,1019.34
2023-02-19T10:31:21.052Z,1019.32
2023-02-19T10:32:20.368Z,1019.51
2023-02-19T10:33:18.845Z,1019.47
2023-02-19T10:34:19.625Z,1019.43
2023-02-19T10:35:18.832Z,1019.46
2023-02-19T10:36:18.770Z,1019.43
2023-02-19T10:37:18.754Z,1019.42
2023-02-19T10:38:18.760Z,1019.41
2023-02-19T10:39:18.766Z,1019.39
2023-02-19T10:40:18.817Z,1019.44
2023-02-19T10:41:18.757Z,1019.51
2023-02-19T10:42:18.728Z,1019.45
2023-02-19T10:43:18.698Z,1019.48
2023-02-19T10:44:18.713Z,1019.38
2023-02-19T10:45:18.669Z,1019.35
2023-02-19T10:46:18.821Z,1019.41
2023-02-19T10:47:18.657Z,1019.48
2023-02-19T10:48:18.625Z,1019.49
2023-02-19T10:49:18.633Z,1019.49
2023-02-19T10:50:19.597Z,1019.58
2023-02-19T10:51:18.595Z,1019.54
2023-02-19T10:52:18.701Z,1019.63
2023-02-19T10:53:18.599Z,1019.63
2023-02-19T10:54:19.374Z,1019.69
2023-02-19T10:55:18.572Z,1019.63
2023-02-19T10:56:18.590Z,1019.67
2023-02-19T10:57:18.553Z,1019.64
2023-02-19T10:58:18.562Z,1019.62
2023-02-19T10:59:18.563Z,1019.66
2023-02-19T11:00:18.696Z,1019.58
2023-02-19T11:01:18.596Z,1019.61
2023-02-19T11:02:18.509Z,1019.61
2023-02-19T11:03:18.480Z,1019.60
2023-02-19T11:04:18.576Z,1019.61
2023-02-19T11:05:18.458Z,1019.69
2023-02-19T11:06:18.523Z,1019.69
2023-02-19T11:07:18.450Z,1019.65
2023-02-19T11:08:18.593Z,1019.72
2023-02-19T11:09:18.433Z,1019.71
2023-02-19T11:10:19.841Z,1019.74
2023-02-19T11:11:18.422Z,1019.75
2023-02-19T11:12:18.411Z,1019.83
2023-02-19T11:13:18.482Z,1019.81
2023-02-19T11:14:18.434Z,1019.83
2023-02-19T11:15:18.331Z,1019.83
2023-02-19T11:16:18.417Z,1019.81
2023-02-19T11:17:18.464Z,1019.76
2023-02-19T11:18:18.293Z,1019.76
2023-02-19T11:19:18.460Z,1019.78
2023-02-19T11:20:19.290Z,1019.76
2023-02-19T11:21:18.276Z,1019.78
2023-02-19T11:22:18.274Z,1019.73
2023-02-19T11:23:18.341Z,1019.69
2023-02-19T11:24:18.241Z,1019.75
2023-02-19T11:25:18.242Z,1019.67
2023-02-19T11:26:18.216Z,1019.69
2023-02-19T11:27:18.239Z,1019.70
2023-02-19T11:28:18.206Z,1019.73
2023-02-19T11:29:18.220Z,1019.71
2023-02-19T11:30:18.342Z,1019.68
2023-02-19T11:31:18.269Z,1019.64
2023-02-19T11:32:18.321Z,1019.58
2023-02-19T11:33:18.157Z,1019.57
2023-02-19T11:34:18.136Z,1019.49
2023-02-19T11:35:18.259Z,1019.57
2023-02-19T11:36:18.129Z,1019.49
2023-02-19T11:37:18.101Z,1019.61
2023-02-19T11:38:18.099Z,1019.64
2023-02-19T11:39:18.087Z,1019.64
2023-02-19T11:40:18.055Z,1019.56
2023-02-19T11:41:18.078Z,1019.56
2023-02-19T11:42:18.050Z,1019.58
2023-02-19T11:43:18.024Z,1019.53
2023-02-19T11:44:18.014Z,1019.58
2023-02-19T11:45:18.061Z,1019.55
2023-02-19T11:46:18.038Z,1019.57
2023-02-19T11:47:18.012Z,1019.53
2023-02-19T11:48:17.964Z,1019.61
2023-02-19T11:49:17.954Z,1019.65
2023-02-19T11:50:17.986Z,1019.57
2023-02-19T11:51:17.953Z,1019.58
2023-02-19T11:52:17.937Z,1019.58
2023-02-19T11:53:17.942Z,1019.54
2023-02-19T11:54:17.910Z,1019.58
2023-02-19T11:55:17.912Z,1019.54
2023-02-19T11:56:17.911Z,1019.63
2023-02-19T11:57:17.936Z,1019.52
2023-02-19T11:58:17.849Z,1019.49
2023-02-19T11:59:17.855Z,1019.47
2023-02-19T12:00:17.899Z,1019.57
2023-02-19T12:01:17.839Z,1019.50
2023-02-19T12:02:17.860Z,1019.49
2023-02-19T12:03:18.785Z,1019.48
2023-02-19T12:04:17.969Z,1019.48
2023-02-19T12:05:17.843Z,1019.51